Flight Track Log - Related Links

Times and Time Zones

All times are in EDT time to prevent confusion due to time zone crossing. See the SKW4664 flight status page for this flight to view local times or setup timezone preferences in your user account.

Time Position Orientation Groundspeed Altitude Reporting Facility
EDT Latitude Longitude Course Direction KTS MPH feet Rate Location/Type
Mon 10:34:56 AM 44.8833 -93.2833 235° Southwest 186 214 2,600  Level Minneapolis TRACON
Mon 10:35:20 AM 44.8850 -93.3094 275° West 200 230 2,900 1,976 Climbing Minneapolis Center
Mon 10:36:21 AM 44.8650 -93.4039 253° West 261 300 5,400 3,122 Climbing Minneapolis Center
Mon 10:37:00 AM 44.6340 -93.7321 235° Southwest  Level FlightAware Approximate
Mon 10:37:23 AM 44.8258 -93.5153 244° Southwest 276 318 9,300  Level Minneapolis Center
Mon 10:38:00 AM 44.5634 -93.8554 230° Southwest  Level FlightAware Approximate
Mon 10:38:25 AM 44.7697 -93.5900 223° Southwest 281 323 11,900  Level Minneapolis Center
Mon 10:39:00 AM 44.4932 -93.9803 235° Southwest  Level FlightAware Approximate
Mon 10:39:27 AM 44.7128 -93.6683 224° Southwest 292 336 14,300  Level Minneapolis Center
Mon 10:40:00 AM 44.4446 -94.0775 235° Southwest  Level FlightAware Approximate
Mon 10:40:28 AM 44.6550 -93.7467 224° Southwest 290 334 16,800  Level Minneapolis Center
Mon 10:41:30 AM 44.5936 -93.8306 224° Southwest 316 364 17,000 726 Climbing Minneapolis Center
Mon 10:42:32 AM 44.5336 -93.9389 232° Southwest 354 407 18,300 1,597 Climbing Minneapolis Center
Mon 10:43:34 AM 44.4653 -94.0697 234° Southwest 348 400 20,300 1,610 Climbing Minneapolis Center
Mon 10:44:35 AM 44.4069 -94.1825 234° Southwest 356 410 21,600 1,073 Climbing Minneapolis Center
Mon 10:45:37 AM 44.3450 -94.2975 233° Southwest 368 423 22,500 774 Climbing Minneapolis Center
Mon 10:46:39 AM 44.2817 -94.4175 234° Southwest 382 440 23,200 677 Climbing Minneapolis Center
Mon 10:47:41 AM 44.2156 -94.5408 233° Southwest 395 455 23,900 387 Climbing Minneapolis Center
Mon 10:48:43 AM 44.1372 -94.6869 233° Southwest 404 465 24,000 49 Climbing Minneapolis Center
Mon 10:49:44 AM 44.0703 -94.8114 233° Southwest 403 464 24,000  Level Minneapolis Center
Mon 10:50:46 AM 44.0042 -94.9336 233° Southwest 398 458 24,000  Level Minneapolis Center
Mon 10:51:48 AM 43.9383 -95.0544 233° Southwest 394 453 24,000  Level Minneapolis Center
Mon 10:52:50 AM 43.8728 -95.1731 233° Southwest 389 448 24,000 -49 Level Minneapolis Center
Mon 10:53:51 AM 43.8200 -95.2689 233° Southwest 388 447 23,900 -1,333 Descending Minneapolis Center
Mon 10:55:05 AM 43.7267 -95.4364 232° Southwest 391 450 21,000 -2,321 Descending Minneapolis Center
Mon 10:56:08 AM 43.6519 -95.5803 234° Southwest 386 444 18,600 -2,177 Descending Minneapolis Center
Mon 10:57:09 AM 43.6492 -95.7164 268° West 359 413 16,500 -2,000 Descending Minneapolis Center
Mon 10:58:11 AM 43.6492 -95.8522 270° West 355 409 14,500 -1,935 Descending Minneapolis Center
Mon 10:59:13 AM 43.6500 -95.9811 271° West 342 394 12,500 -1,597 Descending Minneapolis Center
Mon 11:00:15 AM 43.6358 -96.0961 260° West 313 360 11,200 -1,268 Descending Minneapolis Center
Mon 11:01:16 AM 43.6228 -96.1936 260° West 287 330 9,900 -1,317 Descending Minneapolis Center
Mon 11:02:18 AM 43.6114 -96.2889 261° West 268 308 8,500 -1,500 Descending Minneapolis Center
Mon 11:03:20 AM 43.5958 -96.4072 260° West 262 302 6,800 -1,103 Descending Minneapolis Center
Mon 11:04:34 AM 43.5836 -96.5033 260° West 258 297 6,000 -750 Descending Minneapolis Center
Mon 11:05:36 AM 43.5658 -96.6222 258° West 260 299 5,100 -726 Descending Minneapolis Center
Mon 11:06:38 AM 43.5228 -96.6867 227° Southwest 238 274 4,500 -581 Descending Minneapolis Center

Login

Don't have an account? Register now (free) for customized features, flight alerts, and more!